< < Back
Terminal Aerodrome Forecast


Current Version              Previous Versions:   1  2  3  4  5  6  7  8  9  

Terminal Aerodrome Forecast

516
FTUS42 KFFC 301428 AAC
TAFMCN
TAF AMD
KMCN 301428Z 3014/3112 12004KT 6SM BR BKN010
     FM301500 12005KT P6SM SCT020
     FM301700 12006KT P6SM SCT040
     FM310100 00000KT P6SM FEW060
     FM310900 00000KT P6SM BKN012=

Latest METAR

916
SAUS80 KWBC 301800
MTRMCN
METAR KMCN 301753Z VRB04KT 10SM BKN043 BKN055 31/18 A3013 RMK AO2 SLP199
T03060178 10306 20200 58014


USA.gov is the U.S. government's official web portal to all federal, state and local government web resources and services.